sensor_id;sensor_type;location;lat;lon;timestamp;pressure;altitude;pressure_sealevel;temperature;humidity
46944;BME280;32678;43.852;25.952;2023-05-25T00:04:02;100973.97;;;22.59;50.80
46944;BME280;32678;43.852;25.952;2023-05-25T00:08:59;100966.91;;;22.69;51.51
46944;BME280;32678;43.852;25.952;2023-05-25T00:13:56;100970.91;;;22.97;50.64
46944;BME280;32678;43.852;25.952;2023-05-25T00:18:53;100971.03;;;22.40;51.81
46944;BME280;32678;43.852;25.952;2023-05-25T00:23:54;100977.34;;;21.82;53.30
46944;BME280;32678;43.852;25.952;2023-05-25T00:28:50;100979.00;;;21.95;53.20
46944;BME280;32678;43.852;25.952;2023-05-25T00:33:47;100979.41;;;21.89;53.48
46944;BME280;32678;43.852;25.952;2023-05-25T00:38:45;100979.13;;;22.05;53.29
46944;BME280;32678;43.852;25.952;2023-05-25T00:43:44;100989.81;;;21.94;53.84
46944;BME280;32678;43.852;25.952;2023-05-25T00:48:40;100987.16;;;21.81;54.49
46944;BME280;32678;43.852;25.952;2023-05-25T00:53:38;100987.78;;;21.85;54.56
46944;BME280;32678;43.852;25.952;2023-05-25T00:58:35;100988.16;;;22.26;53.75
46944;BME280;32678;43.852;25.952;2023-05-25T01:03:36;100987.59;;;22.89;52.32
46944;BME280;32678;43.852;25.952;2023-05-25T01:08:35;100993.03;;;22.99;52.12
46944;BME280;32678;43.852;25.952;2023-05-25T01:13:32;100984.31;;;22.86;53.68
46944;BME280;32678;43.852;25.952;2023-05-25T01:18:30;100983.69;;;22.60;54.31
46944;BME280;32678;43.852;25.952;2023-05-25T01:23:32;100979.69;;;22.66;53.45
46944;BME280;32678;43.852;25.952;2023-05-25T01:28:32;100974.91;;;23.03;52.60
46944;BME280;32678;43.852;25.952;2023-05-25T01:33:32;100975.69;;;22.71;52.32
46944;BME280;32678;43.852;25.952;2023-05-25T01:38:32;100995.78;;;22.20;52.90
46944;BME280;32678;43.852;25.952;2023-05-25T01:43:29;100988.13;;;21.69;54.58
46944;BME280;32678;43.852;25.952;2023-05-25T01:48:29;100981.63;;;21.84;54.03
46944;BME280;32678;43.852;25.952;2023-05-25T01:53:34;100985.34;;;21.47;55.15
46944;BME280;32678;43.852;25.952;2023-05-25T01:58:33;100989.03;;;20.97;56.94
46944;BME280;32678;43.852;25.952;2023-05-25T02:03:31;100978.78;;;20.54;57.81
46944;BME280;32678;43.852;25.952;2023-05-25T02:08:28;100981.88;;;20.61;58.53
46944;BME280;32678;43.852;25.952;2023-05-25T02:13:29;100988.50;;;20.92;57.68
46944;BME280;32678;43.852;25.952;2023-05-25T02:18:26;100986.03;;;20.65;57.78
46944;BME280;32678;43.852;25.952;2023-05-25T02:23:23;100984.34;;;20.88;57.49
46944;BME280;32678;43.852;25.952;2023-05-25T02:28:19;101000.75;;;20.33;58.75
46944;BME280;32678;43.852;25.952;2023-05-25T02:33:18;100991.56;;;20.49;58.57
46944;BME280;32678;43.852;25.952;2023-05-25T02:38:16;100995.81;;;20.64;58.81
46944;BME280;32678;43.852;25.952;2023-05-25T02:43:13;101005.09;;;20.71;58.17
46944;BME280;32678;43.852;25.952;2023-05-25T02:48:09;101010.28;;;20.86;58.26
46944;BME280;32678;43.852;25.952;2023-05-25T02:53:07;101018.03;;;21.14;56.95
46944;BME280;32678;43.852;25.952;2023-05-25T02:58:05;101033.25;;;21.25;56.35
46944;BME280;32678;43.852;25.952;2023-05-25T03:03:19;101032.66;;;21.32;55.59
46944;BME280;32678;43.852;25.952;2023-05-25T03:08:17;101026.72;;;21.29;56.03
46944;BME280;32678;43.852;25.952;2023-05-25T03:13:14;101034.34;;;21.93;54.88
46944;BME280;32678;43.852;25.952;2023-05-25T03:18:11;101031.00;;;22.14;53.97
46944;BME280;32678;43.852;25.952;2023-05-25T03:23:08;101041.06;;;21.15;55.96
46944;BME280;32678;43.852;25.952;2023-05-25T03:28:09;101030.63;;;20.87;57.49
46944;BME280;32678;43.852;25.952;2023-05-25T03:33:07;101034.31;;;20.60;58.84
46944;BME280;32678;43.852;25.952;2023-05-25T03:38:10;101040.69;;;20.58;58.94
46944;BME280;32678;43.852;25.952;2023-05-25T03:43:08;101048.25;;;19.99;61.88
46944;BME280;32678;43.852;25.952;2023-05-25T03:48:05;101041.38;;;19.70;62.93
46944;BME280;32678;43.852;25.952;2023-05-25T03:53:02;101035.06;;;20.37;61.29
46944;BME280;32678;43.852;25.952;2023-05-25T03:57:59;101044.53;;;20.54;60.51
46944;BME280;32678;43.852;25.952;2023-05-25T04:02:56;101045.50;;;20.40;60.58
46944;BME280;32678;43.852;25.952;2023-05-25T04:07:53;101042.81;;;20.53;61.28
46944;BME280;32678;43.852;25.952;2023-05-25T04:12:50;101062.88;;;20.71;60.36
46944;BME280;32678;43.852;25.952;2023-05-25T04:17:48;101069.03;;;20.84;59.56
46944;BME280;32678;43.852;25.952;2023-05-25T04:22:45;101077.03;;;20.59;59.70
46944;BME280;32678;43.852;25.952;2023-05-25T04:27:42;101077.75;;;20.36;61.26
46944;BME280;32678;43.852;25.952;2023-05-25T04:32:47;101085.59;;;20.24;61.57
46944;BME280;32678;43.852;25.952;2023-05-25T04:37:59;101090.03;;;20.51;61.45
46944;BME280;32678;43.852;25.952;2023-05-25T04:42:58;101090.13;;;21.00;60.23
46944;BME280;32678;43.852;25.952;2023-05-25T04:47:56;101101.16;;;21.44;58.37
46944;BME280;32678;43.852;25.952;2023-05-25T04:52:56;101102.91;;;21.20;58.92
46944;BME280;32678;43.852;25.952;2023-05-25T04:57:54;101107.78;;;21.39;58.45
46944;BME280;32678;43.852;25.952;2023-05-25T05:02:52;101110.28;;;20.66;60.53
46944;BME280;32678;43.852;25.952;2023-05-25T05:07:51;101111.44;;;20.74;60.81
46944;BME280;32678;43.852;25.952;2023-05-25T05:12:49;101116.34;;;20.55;61.50
46944;BME280;32678;43.852;25.952;2023-05-25T05:17:47;101118.25;;;21.16;60.71
46944;BME280;32678;43.852;25.952;2023-05-25T05:22:44;101119.84;;;21.06;60.43
46944;BME280;32678;43.852;25.952;2023-05-25T05:27:41;101126.41;;;21.51;59.45
46944;BME280;32678;43.852;25.952;2023-05-25T05:32:47;101126.84;;;21.45;60.31
46944;BME280;32678;43.852;25.952;2023-05-25T05:38:00;101115.91;;;21.25;61.53
46944;BME280;32678;43.852;25.952;2023-05-25T05:42:57;101132.69;;;21.50;61.37
46944;BME280;32678;43.852;25.952;2023-05-25T05:47:55;101154.00;;;21.99;60.58
46944;BME280;32678;43.852;25.952;2023-05-25T05:52:53;101158.66;;;22.43;59.59
46944;BME280;32678;43.852;25.952;2023-05-25T05:57:50;101158.06;;;22.40;59.39
46944;BME280;32678;43.852;25.952;2023-05-25T06:02:47;101162.19;;;22.79;58.89
46944;BME280;32678;43.852;25.952;2023-05-25T06:07:49;101164.91;;;22.90;58.59
46944;BME280;32678;43.852;25.952;2023-05-25T06:12:50;101162.00;;;23.04;58.24
46944;BME280;32678;43.852;25.952;2023-05-25T06:17:48;101164.94;;;23.35;57.77
46944;BME280;32678;43.852;25.952;2023-05-25T06:22:46;101167.97;;;23.52;56.78
46944;BME280;32678;43.852;25.952;2023-05-25T06:27:43;101169.31;;;23.69;56.38
46944;BME280;32678;43.852;25.952;2023-05-25T06:32:41;101168.53;;;23.78;55.93
46944;BME280;32678;43.852;25.952;2023-05-25T06:37:41;101173.41;;;23.84;54.95
46944;BME280;32678;43.852;25.952;2023-05-25T06:42:40;101183.47;;;24.03;54.34
46944;BME280;32678;43.852;25.952;2023-05-25T06:47:56;101180.72;;;24.25;53.65
46944;BME280;32678;43.852;25.952;2023-05-25T06:52:54;101179.81;;;24.36;53.42
46944;BME280;32678;43.852;25.952;2023-05-25T06:57:51;101166.66;;;23.90;54.48
46944;BME280;32678;43.852;25.952;2023-05-25T07:02:48;101181.09;;;24.21;54.43
46944;BME280;32678;43.852;25.952;2023-05-25T07:07:47;101178.19;;;24.24;54.36
46944;BME280;32678;43.852;25.952;2023-05-25T07:12:45;101174.94;;;24.41;54.34
46944;BME280;32678;43.852;25.952;2023-05-25T07:17:42;101174.47;;;24.36;54.67
46944;BME280;32678;43.852;25.952;2023-05-25T07:22:40;101178.00;;;24.36;54.89
46944;BME280;32678;43.852;25.952;2023-05-25T07:27:39;101180.75;;;24.46;54.54
46944;BME280;32678;43.852;25.952;2023-05-25T07:32:37;101177.75;;;24.60;54.15
46944;BME280;32678;43.852;25.952;2023-05-25T07:37:35;101178.72;;;24.80;52.88
46944;BME280;32678;43.852;25.952;2023-05-25T07:42:32;101170.72;;;25.00;52.11
46944;BME280;32678;43.852;25.952;2023-05-25T07:47:31;101173.44;;;25.10;52.92
46944;BME280;32678;43.852;25.952;2023-05-25T07:52:29;101184.53;;;25.26;53.19
46944;BME280;32678;43.852;25.952;2023-05-25T07:57:26;101175.69;;;25.35;53.18
46944;BME280;32678;43.852;25.952;2023-05-25T08:02:25;101176.72;;;25.54;52.30
46944;BME280;32678;43.852;25.952;2023-05-25T08:07:23;101167.81;;;25.53;51.44
46944;BME280;32678;43.852;25.952;2023-05-25T08:12:20;101170.28;;;25.66;49.45
46944;BME280;32678;43.852;25.952;2023-05-25T08:17:38;101184.31;;;25.79;48.51
46944;BME280;32678;43.852;25.952;2023-05-25T08:22:36;101173.47;;;25.90;49.48
46944;BME280;32678;43.852;25.952;2023-05-25T08:27:32;101173.88;;;25.95;49.46
46944;BME280;32678;43.852;25.952;2023-05-25T08:32:32;101172.06;;;26.15;49.68
46944;BME280;32678;43.852;25.952;2023-05-25T08:37:30;101161.19;;;26.26;49.30
46944;BME280;32678;43.852;25.952;2023-05-25T08:42:27;101171.09;;;26.35;49.22
46944;BME280;32678;43.852;25.952;2023-05-25T08:47:26;101174.38;;;26.48;49.73
46944;BME280;32678;43.852;25.952;2023-05-25T08:52:32;101165.03;;;26.52;50.00
46944;BME280;32678;43.852;25.952;2023-05-25T08:57:45;101168.25;;;26.65;49.18
46944;BME280;32678;43.852;25.952;2023-05-25T09:02:47;101157.94;;;26.61;44.00
46944;BME280;32678;43.852;25.952;2023-05-25T09:07:47;101158.50;;;26.45;42.79
46944;BME280;32678;43.852;25.952;2023-05-25T09:12:44;101150.13;;;26.67;44.08
46944;BME280;32678;43.852;25.952;2023-05-25T09:17:43;101146.44;;;26.59;43.17
46944;BME280;32678;43.852;25.952;2023-05-25T09:22:43;101140.66;;;26.15;46.50
46944;BME280;32678;43.852;25.952;2023-05-25T09:27:40;101126.09;;;26.56;45.02
46944;BME280;32678;43.852;25.952;2023-05-25T09:32:38;101123.31;;;26.29;46.20
46944;BME280;32678;43.852;25.952;2023-05-25T09:37:35;101126.03;;;26.76;46.14
46944;BME280;32678;43.852;25.952;2023-05-25T09:42:33;101113.94;;;26.43;44.86
46944;BME280;32678;43.852;25.952;2023-05-25T09:47:30;101125.56;;;26.24;45.67
46944;BME280;32678;43.852;25.952;2023-05-25T09:52:28;101100.06;;;26.47;44.69
46944;BME280;32678;43.852;25.952;2023-05-25T09:57:25;101109.66;;;26.59;44.50
46944;BME280;32678;43.852;25.952;2023-05-25T10:02:23;101106.00;;;26.41;41.87
46944;BME280;32678;43.852;25.952;2023-05-25T10:07:20;101087.94;;;26.34;42.24
46944;BME280;32678;43.852;25.952;2023-05-25T10:12:21;101102.78;;;26.94;41.04
46944;BME280;32678;43.852;25.952;2023-05-25T10:17:20;101093.25;;;26.53;39.66
46944;BME280;32678;43.852;25.952;2023-05-25T10:22:29;101070.72;;;26.73;41.10
46944;BME280;32678;43.852;25.952;2023-05-25T10:27:58;101066.19;;;27.10;41.15
46944;BME280;32678;43.852;25.952;2023-05-25T10:32:57;101048.34;;;27.27;38.64
46944;BME280;32678;43.852;25.952;2023-05-25T10:37:55;101035.31;;;27.05;39.31
46944;BME280;32678;43.852;25.952;2023-05-25T10:42:54;101054.50;;;27.20;40.62
46944;BME280;32678;43.852;25.952;2023-05-25T10:47:52;101045.19;;;27.14;39.21
46944;BME280;32678;43.852;25.952;2023-05-25T10:52:58;101033.66;;;27.49;38.12
46944;BME280;32678;43.852;25.952;2023-05-25T10:58:09;101029.59;;;27.63;36.54
46944;BME280;32678;43.852;25.952;2023-05-25T11:03:13;101036.38;;;27.84;35.20
46944;BME280;32678;43.852;25.952;2023-05-25T11:08:19;101021.81;;;27.95;36.89
46944;BME280;32678;43.852;25.952;2023-05-25T11:13:42;101021.38;;;28.25;37.31
46944;BME280;32678;43.852;25.952;2023-05-25T11:18:52;101010.47;;;28.35;36.47
46944;BME280;32678;43.852;25.952;2023-05-25T11:23:53;101012.78;;;28.30;35.91
46944;BME280;32678;43.852;25.952;2023-05-25T11:28:51;101003.56;;;27.89;34.94
46944;BME280;32678;43.852;25.952;2023-05-25T11:33:48;100997.81;;;28.10;35.27
46944;BME280;32678;43.852;25.952;2023-05-25T11:38:47;100995.13;;;28.10;35.60
46944;BME280;32678;43.852;25.952;2023-05-25T11:44:02;100977.88;;;28.02;35.94
46944;BME280;32678;43.852;25.952;2023-05-25T11:48:59;100984.31;;;27.66;35.02
46944;BME280;32678;43.852;25.952;2023-05-25T11:53:57;100970.84;;;27.84;35.44
46944;BME280;32678;43.852;25.952;2023-05-25T11:58:54;100967.03;;;27.51;36.27
46944;BME280;32678;43.852;25.952;2023-05-25T12:03:51;100959.16;;;27.75;38.03
46944;BME280;32678;43.852;25.952;2023-05-25T12:08:49;100963.63;;;27.67;32.89
46944;BME280;32678;43.852;25.952;2023-05-25T12:13:46;100955.06;;;27.89;33.43
46944;BME280;32678;43.852;25.952;2023-05-25T12:18:44;100954.69;;;28.10;33.80
46944;BME280;32678;43.852;25.952;2023-05-25T12:23:42;100956.38;;;28.11;33.67
46944;BME280;32678;43.852;25.952;2023-05-25T12:28:40;100942.63;;;28.14;33.24
46944;BME280;32678;43.852;25.952;2023-05-25T12:33:37;100944.88;;;28.26;33.27
46944;BME280;32678;43.852;25.952;2023-05-25T12:38:35;100948.19;;;28.46;32.81
46944;BME280;32678;43.852;25.952;2023-05-25T12:43:37;100950.75;;;28.22;32.60
46944;BME280;32678;43.852;25.952;2023-05-25T12:54:45;100959.47;;;28.16;32.49
46944;BME280;32678;43.852;25.952;2023-05-25T12:59:45;100971.28;;;28.15;30.45
46944;BME280;32678;43.852;25.952;2023-05-25T13:05:15;100983.91;;;27.96;33.75
46944;BME280;32678;43.852;25.952;2023-05-25T13:15:48;100987.78;;;27.58;40.67
46944;BME280;32678;43.852;25.952;2023-05-25T13:20:45;100979.66;;;27.50;39.17
46944;BME280;32678;43.852;25.952;2023-05-25T13:25:48;100984.97;;;27.33;38.69
46944;BME280;32678;43.852;25.952;2023-05-25T13:30:44;100983.66;;;27.01;40.96
46944;BME280;32678;43.852;25.952;2023-05-25T13:35:43;100988.38;;;26.90;39.94
46944;BME280;32678;43.852;25.952;2023-05-25T13:40:55;100983.41;;;26.95;41.53
46944;BME280;32678;43.852;25.952;2023-05-25T13:45:53;100987.25;;;26.92;40.75
46944;BME280;32678;43.852;25.952;2023-05-25T13:50:55;100993.44;;;26.93;41.50
46944;BME280;32678;43.852;25.952;2023-05-25T13:55:52;100996.94;;;27.03;39.81
46944;BME280;32678;43.852;25.952;2023-05-25T14:00:49;100985.34;;;27.02;39.38
46944;BME280;32678;43.852;25.952;2023-05-25T14:05:46;100977.47;;;26.91;38.56
46944;BME280;32678;43.852;25.952;2023-05-25T14:10:44;100965.63;;;26.74;38.68
46944;BME280;32678;43.852;25.952;2023-05-25T14:15:42;100956.81;;;26.92;39.86
46944;BME280;32678;43.852;25.952;2023-05-25T14:20:39;100960.19;;;26.84;43.41
46944;BME280;32678;43.852;25.952;2023-05-25T14:25:38;100970.09;;;26.84;42.80
46944;BME280;32678;43.852;25.952;2023-05-25T14:30:35;100980.44;;;27.15;40.40
46944;BME280;32678;43.852;25.952;2023-05-25T14:35:32;100982.28;;;27.15;39.06
46944;BME280;32678;43.852;25.952;2023-05-25T14:40:30;100998.28;;;26.89;37.24
46944;BME280;32678;43.852;25.952;2023-05-25T14:45:30;101012.22;;;26.75;38.14
46944;BME280;32678;43.852;25.952;2023-05-25T14:50:31;101026.66;;;26.74;38.59
46944;BME280;32678;43.852;25.952;2023-05-25T14:55:28;101068.84;;;26.73;38.96
46944;BME280;32678;43.852;25.952;2023-05-25T15:00:26;101079.69;;;26.45;43.63
46944;BME280;32678;43.852;25.952;2023-05-25T15:05:22;101059.41;;;25.35;48.90
46944;BME280;32678;43.852;25.952;2023-05-25T15:10:22;101044.81;;;25.18;48.58
46944;BME280;32678;43.852;25.952;2023-05-25T15:15:22;101059.63;;;24.31;52.33
46944;BME280;32678;43.852;25.952;2023-05-25T15:20:19;101049.53;;;23.71;52.29
46944;BME280;32678;43.852;25.952;2023-05-25T15:25:20;101040.31;;;23.21;54.64
46944;BME280;32678;43.852;25.952;2023-05-25T15:30:31;101050.16;;;22.98;54.47
46944;BME280;32678;43.852;25.952;2023-05-25T15:35:29;101052.09;;;23.07;52.34
46944;BME280;32678;43.852;25.952;2023-05-25T15:40:29;101056.47;;;23.19;52.98
46944;BME280;32678;43.852;25.952;2023-05-25T15:45:26;101063.56;;;22.87;55.94
46944;BME280;32678;43.852;25.952;2023-05-25T15:50:23;101039.44;;;22.65;55.99
46944;BME280;32678;43.852;25.952;2023-05-25T15:55:21;101059.41;;;22.72;57.63
46944;BME280;32678;43.852;25.952;2023-05-25T16:00:19;101063.41;;;23.00;56.84
46944;BME280;32678;43.852;25.952;2023-05-25T16:05:16;101062.56;;;22.99;56.29
46944;BME280;32678;43.852;25.952;2023-05-25T16:10:13;101059.28;;;22.96;55.64
46944;BME280;32678;43.852;25.952;2023-05-25T16:15:12;101055.34;;;23.22;54.36
46944;BME280;32678;43.852;25.952;2023-05-25T16:20:09;101047.09;;;23.25;54.70
46944;BME280;32678;43.852;25.952;2023-05-25T16:25:06;101069.59;;;23.45;54.30
46944;BME280;32678;43.852;25.952;2023-05-25T16:30:09;101072.31;;;23.65;54.22
46944;BME280;32678;43.852;25.952;2023-05-25T16:35:10;101067.22;;;23.62;53.48
46944;BME280;32678;43.852;25.952;2023-05-25T16:40:07;101068.59;;;23.89;55.19
46944;BME280;32678;43.852;25.952;2023-05-25T16:45:09;101071.50;;;23.86;54.53
46944;BME280;32678;43.852;25.952;2023-05-25T16:50:06;101059.81;;;23.87;54.68
46944;BME280;32678;43.852;25.952;2023-05-25T16:55:05;101058.09;;;23.65;56.66
46944;BME280;32678;43.852;25.952;2023-05-25T17:00:02;101059.38;;;23.70;56.72
46944;BME280;32678;43.852;25.952;2023-05-25T17:04:59;101060.03;;;23.63;57.24
46944;BME280;32678;43.852;25.952;2023-05-25T17:09:56;101057.63;;;23.38;59.46
46944;BME280;32678;43.852;25.952;2023-05-25T17:14:53;101062.97;;;23.60;57.61
46944;BME280;32678;43.852;25.952;2023-05-25T17:19:50;101059.34;;;23.39;58.86
46944;BME280;32678;43.852;25.952;2023-05-25T17:24:51;101061.28;;;23.48;59.16
46944;BME280;32678;43.852;25.952;2023-05-25T17:29:48;101065.16;;;23.44;58.20
46944;BME280;32678;43.852;25.952;2023-05-25T17:34:48;101061.44;;;23.35;59.20
46944;BME280;32678;43.852;25.952;2023-05-25T17:39:45;101058.59;;;23.37;59.35
46944;BME280;32678;43.852;25.952;2023-05-25T17:44:41;101060.44;;;23.36;58.57
46944;BME280;32678;43.852;25.952;2023-05-25T17:49:39;101050.97;;;23.32;57.81
46944;BME280;32678;43.852;25.952;2023-05-25T17:54:36;101059.59;;;23.47;57.32
46944;BME280;32678;43.852;25.952;2023-05-25T17:59:33;101051.09;;;23.30;57.59
46944;BME280;32678;43.852;25.952;2023-05-25T18:04:31;101053.25;;;23.37;58.07
46944;BME280;32678;43.852;25.952;2023-05-25T18:09:28;101057.81;;;23.03;58.02
46944;BME280;32678;43.852;25.952;2023-05-25T18:14:26;101054.56;;;22.77;58.02
46944;BME280;32678;43.852;25.952;2023-05-25T18:19:24;101063.19;;;22.80;59.18
46944;BME280;32678;43.852;25.952;2023-05-25T18:24:21;101075.50;;;22.59;60.23
46944;BME280;32678;43.852;25.952;2023-05-25T18:29:18;101077.72;;;22.65;61.22
46944;BME280;32678;43.852;25.952;2023-05-25T18:34:18;101095.75;;;22.85;61.17
46944;BME280;32678;43.852;25.952;2023-05-25T18:39:15;101107.84;;;22.67;63.28
46944;BME280;32678;43.852;25.952;2023-05-25T18:44:13;101104.00;;;22.94;62.75
46944;BME280;32678;43.852;25.952;2023-05-25T18:49:11;101113.72;;;22.72;62.66
46944;BME280;32678;43.852;25.952;2023-05-25T18:54:09;101115.84;;;22.56;63.92
46944;BME280;32678;43.852;25.952;2023-05-25T18:59:08;101122.53;;;22.62;64.18
46944;BME280;32678;43.852;25.952;2023-05-25T19:04:05;101123.00;;;22.56;64.02
46944;BME280;32678;43.852;25.952;2023-05-25T19:09:02;101142.22;;;22.61;63.70
46944;BME280;32678;43.852;25.952;2023-05-25T19:14:00;101137.78;;;22.48;63.87
46944;BME280;32678;43.852;25.952;2023-05-25T19:18:57;101131.03;;;22.56;63.89
46944;BME280;32678;43.852;25.952;2023-05-25T19:23:54;101129.16;;;22.45;64.96
46944;BME280;32678;43.852;25.952;2023-05-25T19:28:53;101148.72;;;22.45;65.00
46944;BME280;32678;43.852;25.952;2023-05-25T19:33:50;101142.03;;;22.40;64.39
46944;BME280;32678;43.852;25.952;2023-05-25T19:38:47;101125.41;;;22.36;64.19
46944;BME280;32678;43.852;25.952;2023-05-25T19:43:45;101146.81;;;22.24;65.06
46944;BME280;32678;43.852;25.952;2023-05-25T19:48:47;101152.06;;;22.25;66.04
46944;BME280;32678;43.852;25.952;2023-05-25T19:53:44;101156.28;;;21.80;66.68
46944;BME280;32678;43.852;25.952;2023-05-25T19:58:43;101153.41;;;21.47;68.12
46944;BME280;32678;43.852;25.952;2023-05-25T20:03:39;101162.03;;;21.50;67.30
46944;BME280;32678;43.852;25.952;2023-05-25T20:08:37;101169.44;;;21.34;67.38
46944;BME280;32678;43.852;25.952;2023-05-25T20:13:35;101168.88;;;21.54;66.15
46944;BME280;32678;43.852;25.952;2023-05-25T20:18:32;101167.34;;;21.63;65.50
46944;BME280;32678;43.852;25.952;2023-05-25T20:23:29;101161.22;;;21.37;65.92
46944;BME280;32678;43.852;25.952;2023-05-25T20:28:26;101158.41;;;21.64;64.32
46944;BME280;32678;43.852;25.952;2023-05-25T20:33:26;101150.09;;;21.80;64.01
46944;BME280;32678;43.852;25.952;2023-05-25T20:38:23;101151.38;;;21.87;64.61
46944;BME280;32678;43.852;25.952;2023-05-25T20:43:21;101146.53;;;21.55;65.61
46944;BME280;32678;43.852;25.952;2023-05-25T20:48:18;101174.97;;;21.80;65.40
46944;BME280;32678;43.852;25.952;2023-05-25T20:53:16;101179.63;;;21.89;64.79
46944;BME280;32678;43.852;25.952;2023-05-25T20:58:14;101186.50;;;21.81;64.20
46944;BME280;32678;43.852;25.952;2023-05-25T21:03:11;101178.91;;;21.87;63.49
46944;BME280;32678;43.852;25.952;2023-05-25T21:08:08;101184.84;;;21.67;63.21
46944;BME280;32678;43.852;25.952;2023-05-25T21:13:06;101260.06;;;21.97;61.90
46944;BME280;32678;43.852;25.952;2023-05-25T21:18:03;101255.38;;;21.88;61.56
46944;BME280;32678;43.852;25.952;2023-05-25T21:23:01;101241.03;;;21.89;61.23
46944;BME280;32678;43.852;25.952;2023-05-25T21:27:59;101241.69;;;21.93;61.20
46944;BME280;32678;43.852;25.952;2023-05-25T21:32:56;101243.16;;;22.33;59.88
46944;BME280;32678;43.852;25.952;2023-05-25T21:37:54;101230.72;;;22.45;59.07
46944;BME280;32678;43.852;25.952;2023-05-25T21:42:50;101232.84;;;22.64;59.13
46944;BME280;32678;43.852;25.952;2023-05-25T21:47:48;101223.00;;;22.64;59.02
46944;BME280;32678;43.852;25.952;2023-05-25T21:52:46;101224.00;;;22.39;60.20
46944;BME280;32678;43.852;25.952;2023-05-25T21:57:42;101203.91;;;21.99;64.54
46944;BME280;32678;43.852;25.952;2023-05-25T22:02:39;101202.72;;;21.54;67.27
46944;BME280;32678;43.852;25.952;2023-05-25T22:07:37;101186.00;;;21.14;69.41
46944;BME280;32678;43.852;25.952;2023-05-25T22:12:34;101179.69;;;21.28;70.49
46944;BME280;32678;43.852;25.952;2023-05-25T22:17:31;101172.75;;;21.00;71.98
46944;BME280;32678;43.852;25.952;2023-05-25T22:22:28;101146.28;;;20.59;73.66
46944;BME280;32678;43.852;25.952;2023-05-25T22:27:26;101164.94;;;20.59;75.19
46944;BME280;32678;43.852;25.952;2023-05-25T22:32:23;101152.69;;;20.29;76.17
46944;BME280;32678;43.852;25.952;2023-05-25T22:37:22;101156.44;;;20.00;77.64
46944;BME280;32678;43.852;25.952;2023-05-25T22:42:18;101149.66;;;20.09;77.24
46944;BME280;32678;43.852;25.952;2023-05-25T22:47:15;101155.56;;;19.87;78.89
46944;BME280;32678;43.852;25.952;2023-05-25T22:52:13;101148.03;;;20.33;77.36
46944;BME280;32678;43.852;25.952;2023-05-25T22:57:11;101136.72;;;20.56;77.45
46944;BME280;32678;43.852;25.952;2023-05-25T23:02:08;101134.16;;;20.55;77.13
46944;BME280;32678;43.852;25.952;2023-05-25T23:07:05;101137.03;;;20.77;76.09
46944;BME280;32678;43.852;25.952;2023-05-25T23:12:03;101120.28;;;21.00;75.45
46944;BME280;32678;43.852;25.952;2023-05-25T23:17:00;101138.81;;;21.40;75.88
46944;BME280;32678;43.852;25.952;2023-05-25T23:21:57;101136.88;;;21.54;73.66
46944;BME280;32678;43.852;25.952;2023-05-25T23:26:54;101137.69;;;21.06;74.61
46944;BME280;32678;43.852;25.952;2023-05-25T23:31:51;101121.13;;;20.63;75.96
46944;BME280;32678;43.852;25.952;2023-05-25T23:36:48;101133.84;;;20.72;75.81
46944;BME280;32678;43.852;25.952;2023-05-25T23:41:50;101139.66;;;20.39;77.92
46944;BME280;32678;43.852;25.952;2023-05-25T23:46:47;101141.06;;;20.45;77.43
46944;BME280;32678;43.852;25.952;2023-05-25T23:51:44;101132.78;;;20.22;78.08
46944;BME280;32678;43.852;25.952;2023-05-25T23:56:41;101141.56;;;20.10;79.06
